createdAt,value
2024-01-09T00:01:08.424Z,5.30
2024-01-09T00:03:10.281Z,5.38
2024-01-09T00:05:12.183Z,5.36
2024-01-09T00:09:15.446Z,5.35
2024-01-09T00:11:17.273Z,5.31
2024-01-09T00:13:19.113Z,5.45
2024-01-09T00:15:20.872Z,5.42
2024-01-09T00:17:22.716Z,5.37
2024-01-09T00:19:24.628Z,5.38
2024-01-09T00:21:26.492Z,5.47
2024-01-09T00:23:28.465Z,5.58
2024-01-09T00:25:30.255Z,5.56
2024-01-09T00:29:36.313Z,5.50
2024-01-09T00:31:38.229Z,5.50
2024-01-09T00:33:40.115Z,5.51
2024-01-09T00:35:41.929Z,5.55
2024-01-09T00:37:43.789Z,5.50
2024-01-09T00:39:45.566Z,5.42
2024-01-09T00:41:47.392Z,5.54
2024-01-09T00:43:49.159Z,5.40
2024-01-09T00:45:50.968Z,5.43
2024-01-09T00:47:52.852Z,5.47
2024-01-09T00:49:54.878Z,5.48
2024-01-09T00:51:58.465Z,5.57
2024-01-09T00:54:00.311Z,5.58
2024-01-09T00:58:03.692Z,5.58
2024-01-09T01:00:06.361Z,5.50
2024-01-09T01:02:08.255Z,5.51
2024-01-09T01:04:10.182Z,5.53
2024-01-09T01:06:12.116Z,5.50
2024-01-09T01:10:18.878Z,5.63
2024-01-09T01:12:22.832Z,5.66
2024-01-09T01:14:25.380Z,5.55
2024-01-09T01:16:27.282Z,5.56
2024-01-09T01:18:29.115Z,5.46
2024-01-09T01:20:30.988Z,5.53
2024-01-09T01:22:32.866Z,5.53
2024-01-09T01:24:34.777Z,5.39
2024-01-09T01:26:38.769Z,5.47
2024-01-09T01:28:41.444Z,5.39
2024-01-09T01:30:43.296Z,5.43
2024-01-09T01:32:45.142Z,5.52
2024-01-09T01:34:47.404Z,5.45
2024-01-09T01:36:49.282Z,5.49
2024-01-09T01:38:51.083Z,5.46
2024-01-09T01:42:58.099Z,5.53
2024-01-09T01:47:00.861Z,5.47
2024-01-09T01:51:04.076Z,5.35
2024-01-09T01:53:07.673Z,5.48
2024-01-09T01:57:13.750Z,5.55
2024-01-09T01:59:17.748Z,5.43
2024-01-09T02:01:19.647Z,5.56
2024-01-09T02:03:21.338Z,5.45
2024-01-09T02:05:28.639Z,5.47
2024-01-09T02:07:32.586Z,5.45
2024-01-09T02:09:35.652Z,5.43
2024-01-09T02:13:39.530Z,5.45
2024-01-09T02:15:41.368Z,5.32
2024-01-09T02:17:43.654Z,5.42
2024-01-09T02:19:45.447Z,5.36
2024-01-09T02:21:52.249Z,5.42
2024-01-09T02:23:54.200Z,5.31
2024-01-09T02:26:02.555Z,5.46
2024-01-09T02:28:16.055Z,5.49
2024-01-09T02:30:18.089Z,5.37
2024-01-09T02:32:22.717Z,5.46
2024-01-09T02:34:25.606Z,5.39
2024-01-09T02:36:27.459Z,5.44
2024-01-09T02:38:29.432Z,5.41
2024-01-09T02:40:31.169Z,5.44
2024-01-09T02:44:33.522Z,5.48
2024-01-09T02:46:35.420Z,5.58
2024-01-09T02:48:37.191Z,5.44
2024-01-09T02:50:39.084Z,5.52
2024-01-09T02:54:42.477Z,5.58
2024-01-09T02:56:44.295Z,5.53
2024-01-09T02:58:46.156Z,5.33
2024-01-09T03:00:47.886Z,5.38
2024-01-09T03:02:49.754Z,5.43
2024-01-09T03:04:51.558Z,5.51
2024-01-09T03:06:53.595Z,5.50
2024-01-09T03:08:55.403Z,5.63
2024-01-09T03:10:57.108Z,5.58
2024-01-09T03:12:58.828Z,5.68
2024-01-09T03:15:00.524Z,5.51
2024-01-09T03:17:02.273Z,5.49
2024-01-09T03:19:04.066Z,5.62
2024-01-09T03:21:05.929Z,5.64
2024-01-09T03:23:07.780Z,5.65
2024-01-09T03:25:09.739Z,5.58
2024-01-09T03:27:11.538Z,5.62
2024-01-09T03:29:13.317Z,5.53
2024-01-09T03:31:25.355Z,5.61
2024-01-09T03:33:27.250Z,5.74
2024-01-09T03:35:29.190Z,5.44
2024-01-09T03:37:30.956Z,5.60
2024-01-09T03:39:32.665Z,5.52
2024-01-09T03:41:34.447Z,5.46
2024-01-09T03:43:36.370Z,5.44
2024-01-09T03:45:38.237Z,5.53
2024-01-09T03:47:40.082Z,5.42
2024-01-09T03:49:41.903Z,5.51
2024-01-09T03:51:43.811Z,5.55
2024-01-09T03:53:45.546Z,5.46
2024-01-09T03:55:47.337Z,5.37
2024-01-09T03:57:49.124Z,5.34
2024-01-09T03:59:51.188Z,5.44
2024-01-09T04:03:54.586Z,5.50
2024-01-09T04:05:56.514Z,5.50
2024-01-09T04:07:58.620Z,5.50
2024-01-09T04:10:00.408Z,5.55
2024-01-09T04:12:02.186Z,5.52
2024-01-09T04:14:03.935Z,5.61
2024-01-09T04:16:09.674Z,5.61
2024-01-09T04:18:11.643Z,5.64
2024-01-09T04:20:14.187Z,5.48
2024-01-09T04:22:16.031Z,5.51
2024-01-09T04:26:19.196Z,5.42
2024-01-09T04:30:21.643Z,5.41
2024-01-09T04:32:23.665Z,5.46
2024-01-09T04:34:25.898Z,5.54
2024-01-09T04:36:27.659Z,5.50
2024-01-09T04:38:29.551Z,5.56
2024-01-09T04:40:31.293Z,5.49
2024-01-09T04:42:33.111Z,5.55
2024-01-09T04:44:34.845Z,5.47
2024-01-09T04:46:36.538Z,5.53
2024-01-09T04:48:38.390Z,5.48
2024-01-09T04:50:40.182Z,5.57
2024-01-09T04:52:41.981Z,5.62
2024-01-09T04:54:44.238Z,5.63
2024-01-09T04:56:46.014Z,5.45
2024-01-09T04:58:47.880Z,5.51
2024-01-09T05:00:49.602Z,5.49
2024-01-09T05:02:53.832Z,5.45
2024-01-09T05:04:55.738Z,5.56
2024-01-09T05:06:57.979Z,5.61
2024-01-09T05:08:59.808Z,5.61
2024-01-09T05:11:01.509Z,5.60
2024-01-09T05:13:03.377Z,5.65
2024-01-09T05:17:06.494Z,5.70
2024-01-09T05:19:08.317Z,5.66
2024-01-09T05:21:10.278Z,5.67
2024-01-09T05:23:12.051Z,5.64
2024-01-09T05:25:13.776Z,5.60
2024-01-09T05:27:15.482Z,5.48
2024-01-09T05:29:17.226Z,5.58
2024-01-09T05:33:21.738Z,5.62
2024-01-09T05:35:23.720Z,5.68
2024-01-09T05:37:25.524Z,5.65
2024-01-09T05:39:27.274Z,5.66
2024-01-09T05:41:29.101Z,5.46
2024-01-09T05:43:30.852Z,5.55
2024-01-09T05:45:32.605Z,5.59
2024-01-09T05:47:34.547Z,5.54
2024-01-09T05:49:36.537Z,5.56
2024-01-09T05:51:38.311Z,5.64
2024-01-09T05:53:40.423Z,5.61
2024-01-09T05:55:42.127Z,5.63
2024-01-09T05:59:45.730Z,5.70
2024-01-09T06:01:47.486Z,5.64
2024-01-09T06:03:49.236Z,5.75
2024-01-09T06:05:51.179Z,5.72
2024-01-09T06:09:55.344Z,5.60
2024-01-09T06:11:57.620Z,5.61
2024-01-09T06:13:59.430Z,5.63
2024-01-09T06:16:01.152Z,5.67
2024-01-09T06:18:03.029Z,5.64
2024-01-09T06:20:05.509Z,5.69
2024-01-09T06:22:07.241Z,5.66
2024-01-09T06:24:08.978Z,5.69
2024-01-09T06:26:10.752Z,5.71
2024-01-09T06:28:12.562Z,5.64
2024-01-09T06:30:15.392Z,5.54
2024-01-09T06:32:17.304Z,5.53
2024-01-09T06:34:19.133Z,5.62
2024-01-09T06:36:21.103Z,5.61
2024-01-09T06:40:25.710Z,5.61
2024-01-09T06:42:27.472Z,5.58
2024-01-09T06:44:29.237Z,5.55
2024-01-09T06:46:31.578Z,5.60
2024-01-09T06:48:33.733Z,5.53
2024-01-09T06:50:38.241Z,5.54
2024-01-09T06:52:40.544Z,5.63
2024-01-09T06:54:42.282Z,5.57
2024-01-09T06:56:45.738Z,5.62
2024-01-09T06:58:48.946Z,5.67
2024-01-09T07:00:51.903Z,5.58
2024-01-09T07:02:53.972Z,5.63
2024-01-09T07:06:57.670Z,5.58
2024-01-09T07:08:59.781Z,5.66
2024-01-09T07:11:01.586Z,5.63
2024-01-09T07:13:04.712Z,5.68
2024-01-09T07:15:09.463Z,5.56
2024-01-09T07:17:11.510Z,5.69
2024-01-09T07:19:13.535Z,5.68
2024-01-09T07:21:15.640Z,5.65
2024-01-09T07:23:20.519Z,5.59
2024-01-09T07:25:22.968Z,5.47
2024-01-09T07:27:24.825Z,5.53
2024-01-09T07:29:26.717Z,5.61
2024-01-09T07:31:28.611Z,5.56
2024-01-09T07:33:30.495Z,5.54
2024-01-09T07:35:35.793Z,5.50
2024-01-09T07:39:39.554Z,5.48
2024-01-09T07:41:41.621Z,5.56
2024-01-09T07:43:43.471Z,5.58
2024-01-09T07:45:45.218Z,5.55
2024-01-09T07:47:47.207Z,5.54
2024-01-09T07:49:49.158Z,5.57
2024-01-09T07:51:51.351Z,5.55
2024-01-09T07:53:53.367Z,5.50
2024-01-09T07:55:55.507Z,5.44
2024-01-09T07:58:00.616Z,5.53
2024-01-09T08:00:05.635Z,5.48
2024-01-09T08:02:07.871Z,5.58
2024-01-09T08:04:09.894Z,5.48
2024-01-09T08:06:16.549Z,5.51
2024-01-09T08:08:19.085Z,5.50
2024-01-09T08:12:21.691Z,5.47
2024-01-09T08:14:23.968Z,5.49
2024-01-09T08:16:26.577Z,5.59
2024-01-09T08:18:29.031Z,5.58
2024-01-09T08:20:33.361Z,5.54
2024-01-09T08:22:35.377Z,5.62
2024-01-09T08:24:38.492Z,5.56
2024-01-09T08:26:41.750Z,5.49
2024-01-09T08:28:43.754Z,5.55
2024-01-09T08:30:46.062Z,5.54
2024-01-09T08:32:48.493Z,5.44
2024-01-09T08:34:50.722Z,5.53
2024-01-09T08:36:53.072Z,5.52
2024-01-09T08:38:55.039Z,5.54
2024-01-09T08:40:57.691Z,5.45
2024-01-09T08:42:59.717Z,5.49
2024-01-09T08:47:04.282Z,5.48
2024-01-09T08:49:07.222Z,5.47
2024-01-09T08:51:13.764Z,5.40
2024-01-09T08:53:18.370Z,5.56
2024-01-09T08:55:20.400Z,5.50
2024-01-09T08:57:22.704Z,5.54
2024-01-09T08:59:25.150Z,5.41
2024-01-09T09:03:28.113Z,5.48
2024-01-09T09:05:30.305Z,5.44
2024-01-09T09:07:32.617Z,5.45
2024-01-09T09:09:36.540Z,5.48
2024-01-09T09:11:38.674Z,5.57
2024-01-09T09:13:41.375Z,5.49
2024-01-09T09:15:46.863Z,5.46
2024-01-09T09:17:49.855Z,5.53
2024-01-09T09:19:52.284Z,5.61
2024-01-09T09:22:03.002Z,5.54
2024-01-09T09:24:05.879Z,5.50
2024-01-09T09:26:08.392Z,5.42
2024-01-09T09:28:10.942Z,5.46
2024-01-09T09:30:14.135Z,5.54
2024-01-09T09:32:19.877Z,5.49
2024-01-09T09:34:21.904Z,5.59
2024-01-09T09:36:24.396Z,5.53
2024-01-09T09:38:31.615Z,5.58
2024-01-09T09:40:34.361Z,5.54
2024-01-09T09:42:38.021Z,5.57
2024-01-09T09:44:40.950Z,5.65
2024-01-09T09:46:43.336Z,5.59
2024-01-09T09:48:46.127Z,5.59
2024-01-09T09:50:48.746Z,5.64
2024-01-09T09:52:51.445Z,5.45
2024-01-09T09:54:54.699Z,5.57
2024-01-09T09:56:57.020Z,5.60
2024-01-09T10:01:01.662Z,5.69
2024-01-09T10:03:10.352Z,5.71
2024-01-09T10:05:17.867Z,5.77
2024-01-09T10:07:23.269Z,5.69
2024-01-09T10:09:35.277Z,5.73
2024-01-09T10:11:38.028Z,5.69
2024-01-09T10:13:41.003Z,5.75
2024-01-09T10:16:00.053Z,5.74
2024-01-09T10:18:03.057Z,5.82
2024-01-09T10:20:07.640Z,5.83
2024-01-09T10:22:10.163Z,5.81
2024-01-09T10:24:13.082Z,5.88
2024-01-09T10:26:15.710Z,5.89
2024-01-09T10:28:19.375Z,5.91
2024-01-09T10:30:23.052Z,5.95
2024-01-09T10:32:25.485Z,5.98
2024-01-09T10:34:29.754Z,6.07
2024-01-09T10:36:33.310Z,6.12
2024-01-09T10:38:35.965Z,6.17
2024-01-09T10:42:50.276Z,6.31
2024-01-09T10:44:52.509Z,6.31
2024-01-09T10:46:56.456Z,6.37
2024-01-09T10:51:01.864Z,6.54
2024-01-09T10:53:06.921Z,6.58
2024-01-09T10:55:11.319Z,6.58
2024-01-09T10:57:15.753Z,6.67
2024-01-09T10:59:19.097Z,6.73
2024-01-09T11:01:21.968Z,6.76
2024-01-09T11:03:24.615Z,6.79
2024-01-09T11:05:27.040Z,6.87
2024-01-09T11:07:30.738Z,6.93
2024-01-09T11:09:35.016Z,6.98
2024-01-09T11:11:39.509Z,6.93
2024-01-09T11:13:47.990Z,7.01
2024-01-09T11:15:56.123Z,7.02
2024-01-09T11:18:10.618Z,7.09
2024-01-09T11:20:16.175Z,7.13
2024-01-09T11:22:19.665Z,7.21
2024-01-09T11:24:27.635Z,7.22
2024-01-09T11:26:34.345Z,7.29
2024-01-09T11:28:39.013Z,7.24
2024-01-09T11:32:43.441Z,7.29
2024-01-09T11:34:48.667Z,7.34
2024-01-09T11:36:52.626Z,7.27
2024-01-09T11:38:55.772Z,7.36
2024-01-09T11:41:03.946Z,7.34
2024-01-09T11:43:11.000Z,7.42
2024-01-09T11:45:16.448Z,7.43
2024-01-09T11:47:19.027Z,7.35
2024-01-09T11:49:21.596Z,7.39
2024-01-09T11:51:24.618Z,7.42
2024-01-09T11:53:27.760Z,7.50
2024-01-09T11:55:31.538Z,7.48
2024-01-09T11:57:40.577Z,7.58
2024-01-09T11:59:43.292Z,7.61
2024-01-09T12:01:47.940Z,7.67
2024-01-09T12:03:55.671Z,7.66
2024-01-09T12:05:57.669Z,7.64
2024-01-09T12:08:02.278Z,7.76
2024-01-09T12:10:13.050Z,7.76
2024-01-09T12:12:25.715Z,7.62
2024-01-09T12:14:27.800Z,7.75
2024-01-09T12:16:31.200Z,7.79
2024-01-09T12:18:49.165Z,7.69
2024-01-09T12:20:51.675Z,7.71
2024-01-09T12:22:54.513Z,7.67
2024-01-09T12:24:57.233Z,7.78
2024-01-09T12:26:59.482Z,7.81
2024-01-09T12:29:21.001Z,7.96
2024-01-09T12:31:25.366Z,8.03
2024-01-09T12:33:27.860Z,8.11
2024-01-09T12:35:30.136Z,8.04
2024-01-09T12:37:32.682Z,8.25
2024-01-09T12:39:36.926Z,8.25
2024-01-09T12:41:40.605Z,8.32
2024-01-09T12:43:43.310Z,8.35
2024-01-09T12:45:45.398Z,8.37
2024-01-09T12:49:59.763Z,8.30
2024-01-09T12:52:08.284Z,8.53
2024-01-09T12:54:18.133Z,8.51
2024-01-09T12:56:20.567Z,8.55
2024-01-09T12:58:23.305Z,8.53
2024-01-09T13:00:27.644Z,8.74
2024-01-09T13:02:30.015Z,8.68
2024-01-09T13:04:33.554Z,8.56
2024-01-09T13:06:39.270Z,8.55
2024-01-09T13:08:43.606Z,8.68
2024-01-09T13:10:45.567Z,8.72
2024-01-09T13:12:47.579Z,8.85
2024-01-09T13:14:49.729Z,8.87
2024-01-09T13:16:54.636Z,8.79
2024-01-09T13:18:56.905Z,8.70
2024-01-09T13:21:00.514Z,8.71
2024-01-09T13:25:09.172Z,8.84
2024-01-09T13:27:12.716Z,8.82
2024-01-09T13:30:45.700Z,8.78
2024-01-09T13:31:37.874Z,8.82
2024-01-09T13:35:48.027Z,8.91
2024-01-09T13:37:51.416Z,8.92
2024-01-09T13:40:17.993Z,8.98
2024-01-09T13:42:20.256Z,8.98
2024-01-09T13:44:24.032Z,8.84
2024-01-09T13:46:26.090Z,8.90
2024-01-09T13:48:28.915Z,8.90
2024-01-09T13:51:47.934Z,8.91
2024-01-09T13:52:53.705Z,8.90
2024-01-09T13:54:55.846Z,8.94
2024-01-09T13:56:58.742Z,8.93
2024-01-09T13:59:01.709Z,8.96
2024-01-09T14:01:04.591Z,9.04
2024-01-09T14:03:07.194Z,9.04
2024-01-09T14:05:09.997Z,8.89
2024-01-09T14:07:12.506Z,8.86
2024-01-09T14:09:14.333Z,8.93
2024-01-09T14:11:16.380Z,8.99
2024-01-09T14:15:50.691Z,8.77
2024-01-09T14:17:52.764Z,8.72
2024-01-09T14:19:54.990Z,8.84
2024-01-09T14:21:57.509Z,8.74
2024-01-09T14:23:59.559Z,8.70
2024-01-09T14:26:01.594Z,8.82
2024-01-09T14:28:03.861Z,8.83
2024-01-09T14:30:08.283Z,8.85
2024-01-09T14:32:12.424Z,8.80
2024-01-09T14:34:16.160Z,8.66
2024-01-09T14:36:18.649Z,8.55
2024-01-09T14:38:20.576Z,8.63
2024-01-09T14:40:22.700Z,8.63
2024-01-09T14:42:25.096Z,8.46
2024-01-09T14:46:27.872Z,8.51
2024-01-09T14:48:30.947Z,8.27
2024-01-09T14:50:33.745Z,8.33
2024-01-09T14:52:40.001Z,8.22
2024-01-09T14:54:42.874Z,8.26
2024-01-09T14:56:44.928Z,8.05
2024-01-09T14:58:47.217Z,7.96
2024-01-09T15:00:49.639Z,8.02
2024-01-09T15:02:52.890Z,8.04
2024-01-09T15:04:59.403Z,8.02
2024-01-09T15:07:02.809Z,7.98
2024-01-09T15:09:05.653Z,7.91
2024-01-09T15:11:10.543Z,8.04
2024-01-09T15:13:14.877Z,8.00
2024-01-09T15:17:19.069Z,7.77
2024-01-09T15:19:21.265Z,7.73
2024-01-09T15:21:23.314Z,7.76
2024-01-09T15:23:26.055Z,7.79
2024-01-09T15:25:28.937Z,7.67
2024-01-09T15:27:31.209Z,7.78
2024-01-09T15:29:33.222Z,7.71
2024-01-09T15:31:38.708Z,7.69
2024-01-09T15:33:41.181Z,7.61
2024-01-09T15:35:44.659Z,7.52
2024-01-09T15:37:47.419Z,7.59
2024-01-09T15:39:49.948Z,7.62
2024-01-09T15:41:53.224Z,7.52
2024-01-09T15:43:55.739Z,7.55
2024-01-09T15:45:58.111Z,7.51
2024-01-09T15:48:00.635Z,7.56
2024-01-09T15:50:03.348Z,7.41
2024-01-09T15:52:07.705Z,7.36
2024-01-09T15:54:09.992Z,7.43
2024-01-09T15:56:22.274Z,7.20
2024-01-09T15:58:24.946Z,7.21
2024-01-09T16:00:29.065Z,7.27
2024-01-09T16:02:31.540Z,7.23
2024-01-09T16:04:34.089Z,7.07
2024-01-09T16:06:36.778Z,7.03
2024-01-09T16:08:39.396Z,7.17
2024-01-09T16:10:51.859Z,6.94
2024-01-09T16:12:54.168Z,7.04
2024-01-09T16:14:56.920Z,7.04
2024-01-09T16:17:03.384Z,7.04
2024-01-09T16:19:07.333Z,6.88
2024-01-09T16:21:10.280Z,6.79
2024-01-09T16:27:52.597Z,6.71
2024-01-09T16:29:55.804Z,6.72
2024-01-09T16:31:59.095Z,6.74
2024-01-09T16:34:01.865Z,6.60
2024-01-09T16:36:06.045Z,6.78
2024-01-09T16:38:08.934Z,6.64
2024-01-09T16:40:12.634Z,6.70
2024-01-09T16:42:15.496Z,6.73
2024-01-09T16:44:18.361Z,6.72
2024-01-09T16:46:20.753Z,6.70
2024-01-09T16:48:31.996Z,6.68
2024-01-09T16:50:40.972Z,6.63
2024-01-09T16:54:52.280Z,6.60
2024-01-09T16:56:54.964Z,6.57
2024-01-09T16:59:04.469Z,6.64
2024-01-09T17:01:10.222Z,6.44
2024-01-09T17:03:12.644Z,6.45
2024-01-09T17:05:15.378Z,6.49
2024-01-09T17:07:17.715Z,6.43
2024-01-09T17:09:19.980Z,6.52
2024-01-09T17:11:42.188Z,6.47
2024-01-09T17:13:47.589Z,6.27
2024-01-09T17:15:50.364Z,6.29
2024-01-09T17:17:54.382Z,6.34
2024-01-09T17:19:57.182Z,6.28
2024-01-09T17:26:08.058Z,6.30
2024-01-09T17:28:11.311Z,6.41
2024-01-09T17:30:15.437Z,6.22
2024-01-09T17:32:18.604Z,6.29
2024-01-09T17:34:21.508Z,6.25
2024-01-09T17:36:24.292Z,6.18
2024-01-09T17:38:26.817Z,6.28
2024-01-09T17:40:58.365Z,6.20
2024-01-09T17:43:01.322Z,6.10
2024-01-09T17:45:08.233Z,6.15
2024-01-09T17:47:12.337Z,6.11
2024-01-09T17:49:38.735Z,6.17
2024-01-09T17:51:42.448Z,6.18
2024-01-09T17:53:58.508Z,6.15
2024-01-09T17:56:12.572Z,5.87
2024-01-09T17:58:29.435Z,6.03
2024-01-09T18:00:33.826Z,6.01
2024-01-09T18:02:41.573Z,6.03
2024-01-09T18:04:47.870Z,6.01
2024-01-09T18:06:51.007Z,6.04
2024-01-09T18:08:56.635Z,6.13
2024-01-09T18:10:59.583Z,6.10
2024-01-09T18:13:02.783Z,5.98
2024-01-09T18:15:07.919Z,6.02
2024-01-09T18:17:10.571Z,6.05
2024-01-09T18:19:13.592Z,5.98
2024-01-09T18:21:36.176Z,6.03
2024-01-09T18:25:54.968Z,5.98
2024-01-09T18:27:57.939Z,5.96
2024-01-09T18:32:01.969Z,5.99
2024-01-09T18:34:04.560Z,5.99
2024-01-09T18:36:07.955Z,5.89
2024-01-09T18:38:10.792Z,5.87
2024-01-09T18:40:14.106Z,5.91
2024-01-09T18:42:17.701Z,5.72
2024-01-09T18:46:22.894Z,5.93
2024-01-09T18:48:25.424Z,5.94
2024-01-09T18:50:27.939Z,5.68
2024-01-09T18:52:32.212Z,5.64
2024-01-09T18:54:36.979Z,5.76
2024-01-09T18:56:40.680Z,5.82
2024-01-09T18:58:43.088Z,5.73
2024-01-09T19:00:45.661Z,5.78
2024-01-09T19:02:48.146Z,5.74
2024-01-09T19:04:51.609Z,5.82
2024-01-09T19:06:54.186Z,5.81
2024-01-09T19:08:56.745Z,5.84
2024-01-09T19:13:01.249Z,5.74
2024-01-09T19:15:05.400Z,5.75
2024-01-09T19:17:07.862Z,5.77
2024-01-09T19:19:10.182Z,5.73
2024-01-09T19:21:12.332Z,5.80
2024-01-09T19:23:14.557Z,5.85
2024-01-09T19:27:19.286Z,5.73
2024-01-09T19:29:21.929Z,5.82
2024-01-09T19:31:24.006Z,5.87
2024-01-09T19:33:26.319Z,5.91
2024-01-09T19:35:28.782Z,5.94
2024-01-09T19:37:30.799Z,5.78
2024-01-09T19:39:33.182Z,5.86
2024-01-09T19:43:36.963Z,5.88
2024-01-09T19:47:43.511Z,5.92
2024-01-09T19:49:46.098Z,5.75
2024-01-09T19:53:54.838Z,5.79
2024-01-09T19:55:57.093Z,5.75
2024-01-09T19:57:58.997Z,5.69
2024-01-09T20:00:01.056Z,5.61
2024-01-09T20:06:07.216Z,5.81
2024-01-09T20:08:09.683Z,5.75
2024-01-09T20:10:11.727Z,5.76
2024-01-09T20:12:15.894Z,5.78
2024-01-09T20:14:19.032Z,5.72
2024-01-09T20:16:22.186Z,5.73
2024-01-09T20:18:25.535Z,5.83
2024-01-09T20:20:27.755Z,5.84
2024-01-09T20:22:31.399Z,5.65
2024-01-09T20:24:36.672Z,5.61
2024-01-09T20:26:39.545Z,5.65
2024-01-09T20:28:41.894Z,5.62
2024-01-09T20:30:43.951Z,5.67
2024-01-09T20:32:45.900Z,5.67
2024-01-09T20:34:47.885Z,5.68
2024-01-09T20:36:49.906Z,5.63
2024-01-09T20:38:53.332Z,5.63
2024-01-09T20:40:55.437Z,5.68
2024-01-09T20:42:57.313Z,5.76
2024-01-09T20:45:00.701Z,5.67
2024-01-09T20:47:02.818Z,5.69
2024-01-09T20:49:05.810Z,5.75
2024-01-09T20:51:09.030Z,5.74
2024-01-09T20:53:11.054Z,5.73
2024-01-09T20:55:12.979Z,5.66
2024-01-09T20:57:15.513Z,5.72
2024-01-09T20:59:18.094Z,5.78
2024-01-09T21:01:20.603Z,5.77
2024-01-09T21:03:22.591Z,5.75
2024-01-09T21:05:24.732Z,5.68
2024-01-09T21:07:37.406Z,5.48
2024-01-09T21:09:40.757Z,5.59
2024-01-09T21:11:44.452Z,5.62
2024-01-09T21:13:46.267Z,5.63
2024-01-09T21:15:50.795Z,5.54
2024-01-09T21:17:52.964Z,5.60
2024-01-09T21:19:55.162Z,5.60
2024-01-09T21:22:01.257Z,5.64
2024-01-09T21:24:03.736Z,5.60
2024-01-09T21:26:05.862Z,5.68
2024-01-09T21:28:07.897Z,5.73
2024-01-09T21:30:10.996Z,5.54
2024-01-09T21:32:15.109Z,5.66
2024-01-09T21:36:18.732Z,5.74
2024-01-09T21:38:21.352Z,5.60
2024-01-09T21:40:23.742Z,5.62
2024-01-09T21:42:25.686Z,5.67
2024-01-09T21:44:27.627Z,5.69
2024-01-09T21:46:29.476Z,5.62
2024-01-09T21:48:31.627Z,5.56
2024-01-09T21:50:33.461Z,5.59
2024-01-09T21:52:35.331Z,5.57
2024-01-09T21:54:41.582Z,5.54
2024-01-09T21:56:44.563Z,5.50
2024-01-09T21:58:46.500Z,5.49
2024-01-09T22:00:48.615Z,5.57
2024-01-09T22:02:50.689Z,5.54
2024-01-09T22:04:52.826Z,5.49
2024-01-09T22:08:57.926Z,5.51
2024-01-09T22:11:02.216Z,5.31
2024-01-09T22:13:06.265Z,5.43
2024-01-09T22:15:09.109Z,5.48
2024-01-09T22:17:10.991Z,5.51
2024-01-09T22:19:14.038Z,5.52
2024-01-09T22:21:16.047Z,5.55
2024-01-09T22:23:18.083Z,5.54
2024-01-09T22:25:19.990Z,5.51
2024-01-09T22:27:24.070Z,5.47
2024-01-09T22:29:26.075Z,5.51
2024-01-09T22:31:28.154Z,5.47
2024-01-09T22:33:29.959Z,5.53
2024-01-09T22:35:31.760Z,5.47
2024-01-09T22:37:33.637Z,5.53
2024-01-09T22:39:35.486Z,5.31
2024-01-09T22:41:37.403Z,5.44
2024-01-09T22:43:39.375Z,5.31
2024-01-09T22:45:41.412Z,5.34
2024-01-09T22:47:43.896Z,5.32
2024-01-09T22:49:46.129Z,5.37
2024-01-09T22:53:48.715Z,5.37
2024-01-09T22:55:50.590Z,5.28
2024-01-09T22:57:52.506Z,5.41
2024-01-09T22:59:54.532Z,5.34
2024-01-09T23:01:56.388Z,5.36
2024-01-09T23:03:58.254Z,5.34
2024-01-09T23:06:00.361Z,5.34
2024-01-09T23:08:02.490Z,5.45
2024-01-09T23:10:04.707Z,5.35
2024-01-09T23:12:09.522Z,5.40
2024-01-09T23:14:11.571Z,5.35
2024-01-09T23:16:13.555Z,5.24
2024-01-09T23:18:15.532Z,5.33
2024-01-09T23:20:17.505Z,5.35
2024-01-09T23:22:19.393Z,5.30
2024-01-09T23:24:21.214Z,5.38
2024-01-09T23:26:23.006Z,5.34
2024-01-09T23:28:25.139Z,5.26
2024-01-09T23:30:27.002Z,5.38
2024-01-09T23:32:28.981Z,5.29
2024-01-09T23:34:32.503Z,5.37
2024-01-09T23:36:36.114Z,5.20
2024-01-09T23:38:38.024Z,5.31
2024-01-09T23:40:41.638Z,5.31
2024-01-09T23:42:43.871Z,5.30
2024-01-09T23:44:45.784Z,5.34
2024-01-09T23:46:47.748Z,5.34
2024-01-09T23:48:49.653Z,5.36
2024-01-09T23:50:51.459Z,5.39
2024-01-09T23:52:53.205Z,5.36
2024-01-09T23:54:55.067Z,5.31
2024-01-09T23:56:56.840Z,5.36
2024-01-09T23:58:58.757Z,5.35
